sensor_id;sensor_type;location;lat;lon;timestamp;pressure;altitude;pressure_sealevel;temperature;humidity
80188;BME280;73735;52.134;5.436;2024-03-29T00:00:39;99187.38;;;8.90;65.08
80188;BME280;73735;52.134;5.436;2024-03-29T00:03:06;99186.84;;;8.87;65.47
80188;BME280;73735;52.134;5.436;2024-03-29T00:05:32;99181.06;;;8.83;65.31
80188;BME280;73735;52.134;5.436;2024-03-29T00:07:58;99179.25;;;8.83;65.29
80188;BME280;73735;52.134;5.436;2024-03-29T00:10:23;99168.22;;;8.80;65.61
80188;BME280;73735;52.134;5.436;2024-03-29T00:12:49;99171.16;;;8.77;65.55
80188;BME280;73735;52.134;5.436;2024-03-29T00:15:14;99167.06;;;8.74;65.52
80188;BME280;73735;52.134;5.436;2024-03-29T00:17:40;99168.31;;;8.70;65.54
80188;BME280;73735;52.134;5.436;2024-03-29T00:20:06;99173.16;;;8.65;65.91
80188;BME280;73735;52.134;5.436;2024-03-29T00:22:32;99177.31;;;8.68;65.67
80188;BME280;73735;52.134;5.436;2024-03-29T00:24:57;99180.38;;;8.63;65.96
80188;BME280;73735;52.134;5.436;2024-03-29T00:27:23;99184.78;;;8.63;66.02
80188;BME280;73735;52.134;5.436;2024-03-29T00:29:51;99182.47;;;8.60;66.12
80188;BME280;73735;52.134;5.436;2024-03-29T00:32:19;99184.56;;;8.56;66.28
80188;BME280;73735;52.134;5.436;2024-03-29T00:34:44;99185.69;;;8.54;66.20
80188;BME280;73735;52.134;5.436;2024-03-29T00:37:11;99188.16;;;8.55;66.14
80188;BME280;73735;52.134;5.436;2024-03-29T00:39:37;99197.38;;;8.59;66.31
80188;BME280;73735;52.134;5.436;2024-03-29T00:42:03;99202.78;;;8.58;66.38
80188;BME280;73735;52.134;5.436;2024-03-29T00:44:32;99202.94;;;8.56;66.52
80188;BME280;73735;52.134;5.436;2024-03-29T00:46:57;99210.78;;;8.56;66.63
80188;BME280;73735;52.134;5.436;2024-03-29T00:49:23;99214.38;;;8.55;66.09
80188;BME280;73735;52.134;5.436;2024-03-29T00:51:48;99213.69;;;8.53;66.30
80188;BME280;73735;52.134;5.436;2024-03-29T00:54:14;99219.63;;;8.55;66.43
80188;BME280;73735;52.134;5.436;2024-03-29T00:56:39;99209.00;;;8.57;66.52
80188;BME280;73735;52.134;5.436;2024-03-29T00:59:05;99214.09;;;8.58;66.26
80188;BME280;73735;52.134;5.436;2024-03-29T01:01:31;99222.13;;;8.57;66.63
80188;BME280;73735;52.134;5.436;2024-03-29T01:03:57;99218.94;;;8.53;66.41
80188;BME280;73735;52.134;5.436;2024-03-29T01:06:23;99218.94;;;8.53;66.52
80188;BME280;73735;52.134;5.436;2024-03-29T01:08:48;99221.56;;;8.53;66.65
80188;BME280;73735;52.134;5.436;2024-03-29T01:11:14;99221.56;;;8.53;66.69
80188;BME280;73735;52.134;5.436;2024-03-29T01:13:39;99214.81;;;8.51;66.73
80188;BME280;73735;52.134;5.436;2024-03-29T01:16:05;99214.00;;;8.50;66.78
80188;BME280;73735;52.134;5.436;2024-03-29T01:18:30;99216.63;;;8.50;66.96
80188;BME280;73735;52.134;5.436;2024-03-29T01:20:57;99214.00;;;8.50;66.89
80188;BME280;73735;52.134;5.436;2024-03-29T01:23:22;99207.91;;;8.49;66.67
80188;BME280;73735;52.134;5.436;2024-03-29T01:25:48;99200.06;;;8.49;66.68
80188;BME280;73735;52.134;5.436;2024-03-29T01:28:13;99202.53;;;8.51;67.03
80188;BME280;73735;52.134;5.436;2024-03-29T01:30:39;99193.84;;;8.51;67.01
80188;BME280;73735;52.134;5.436;2024-03-29T01:33:04;99199.22;;;8.49;66.85
80188;BME280;73735;52.134;5.436;2024-03-29T01:35:30;99200.88;;;8.50;67.18
80188;BME280;73735;52.134;5.436;2024-03-29T01:37:55;99196.88;;;8.46;67.10
80188;BME280;73735;52.134;5.436;2024-03-29T01:40:20;99186.41;;;8.46;66.81
80188;BME280;73735;52.134;5.436;2024-03-29T01:42:46;99186.09;;;8.49;66.79
80188;BME280;73735;52.134;5.436;2024-03-29T01:45:11;99187.91;;;8.48;66.68
80188;BME280;73735;52.134;5.436;2024-03-29T01:47:37;99176.44;;;8.49;66.65
80188;BME280;73735;52.134;5.436;2024-03-29T01:50:04;99179.06;;;8.49;66.73
80188;BME280;73735;52.134;5.436;2024-03-29T01:52:29;99181.84;;;8.48;66.65
80188;BME280;73735;52.134;5.436;2024-03-29T01:54:56;99181.84;;;8.48;66.76
80188;BME280;73735;52.134;5.436;2024-03-29T01:57:21;99173.47;;;8.44;66.86
80188;BME280;73735;52.134;5.436;2024-03-29T01:59:48;99163.13;;;8.43;66.90
80188;BME280;73735;52.134;5.436;2024-03-29T02:02:14;99147.69;;;8.40;66.76
80188;BME280;73735;52.134;5.436;2024-03-29T02:04:39;99160.63;;;8.41;66.51
80188;BME280;73735;52.134;5.436;2024-03-29T02:07:05;99163.41;;;8.40;66.78
80188;BME280;73735;52.134;5.436;2024-03-29T02:09:31;99166.31;;;8.37;66.84
80188;BME280;73735;52.134;5.436;2024-03-29T02:11:57;99168.94;;;8.37;66.53
80188;BME280;73735;52.134;5.436;2024-03-29T02:14:22;99158.75;;;8.34;66.69
80188;BME280;73735;52.134;5.436;2024-03-29T02:16:48;99160.97;;;8.29;67.02
80188;BME280;73735;52.134;5.436;2024-03-29T02:19:14;99168.97;;;8.27;66.75
80188;BME280;73735;52.134;5.436;2024-03-29T02:21:43;99170.09;;;8.25;67.15
80188;BME280;73735;52.134;5.436;2024-03-29T02:24:11;99177.25;;;8.23;67.09
80188;BME280;73735;52.134;5.436;2024-03-29T02:26:38;99188.72;;;8.22;66.76
80188;BME280;73735;52.134;5.436;2024-03-29T02:29:08;99188.03;;;8.20;67.15
80188;BME280;73735;52.134;5.436;2024-03-29T02:31:37;99194.25;;;8.19;67.18
80188;BME280;73735;52.134;5.436;2024-03-29T02:34:03;99201.41;;;8.17;66.92
80188;BME280;73735;52.134;5.436;2024-03-29T02:36:28;99211.25;;;8.14;67.18
80188;BME280;73735;52.134;5.436;2024-03-29T02:38:54;99199.81;;;8.16;67.12
80188;BME280;73735;52.134;5.436;2024-03-29T02:41:21;99205.03;;;8.16;67.33
80188;BME280;73735;52.134;5.436;2024-03-29T02:43:46;99205.03;;;8.16;67.35
80188;BME280;73735;52.134;5.436;2024-03-29T02:46:12;99206.97;;;8.13;67.12
80188;BME280;73735;52.134;5.436;2024-03-29T02:48:37;99198.81;;;8.17;66.81
80188;BME280;73735;52.134;5.436;2024-03-29T02:51:03;99209.28;;;8.17;67.37
80188;BME280;73735;52.134;5.436;2024-03-29T02:53:29;99203.25;;;8.16;67.26
80188;BME280;73735;52.134;5.436;2024-03-29T02:55:54;99199.81;;;8.16;67.13
80188;BME280;73735;52.134;5.436;2024-03-29T02:58:20;99197.19;;;8.16;67.42
80188;BME280;73735;52.134;5.436;2024-03-29T03:00:45;99191.94;;;8.16;67.34
80188;BME280;73735;52.134;5.436;2024-03-29T03:03:15;99199.63;;;8.17;67.36
80188;BME280;73735;52.134;5.436;2024-03-29T03:05:41;99204.03;;;8.17;67.37
80188;BME280;73735;52.134;5.436;2024-03-29T03:08:07;99204.72;;;8.19;67.47
80188;BME280;73735;52.134;5.436;2024-03-29T03:10:51;99196.03;;;8.18;67.45
80188;BME280;73735;52.134;5.436;2024-03-29T03:13:27;99198.53;;;8.20;67.21
80188;BME280;73735;52.134;5.436;2024-03-29T03:15:53;99190.50;;;8.21;67.46
80188;BME280;73735;52.134;5.436;2024-03-29T03:18:19;99194.09;;;8.20;67.10
80188;BME280;73735;52.134;5.436;2024-03-29T03:20:54;99199.34;;;8.20;67.53
80188;BME280;73735;52.134;5.436;2024-03-29T03:23:20;99198.38;;;8.21;67.49
80188;BME280;73735;52.134;5.436;2024-03-29T03:25:56;99211.34;;;8.23;67.12
80188;BME280;73735;52.134;5.436;2024-03-29T03:28:22;99208.28;;;8.27;67.03
80188;BME280;73735;52.134;5.436;2024-03-29T03:30:51;99224.56;;;8.31;66.66
80188;BME280;73735;52.134;5.436;2024-03-29T03:33:17;99226.91;;;8.34;66.74
80188;BME280;73735;52.134;5.436;2024-03-29T03:35:43;99214.75;;;8.33;66.99
80188;BME280;73735;52.134;5.436;2024-03-29T03:38:09;99212.81;;;8.35;67.07
80188;BME280;73735;52.134;5.436;2024-03-29T03:40:35;99214.47;;;8.36;66.92
80188;BME280;73735;52.134;5.436;2024-03-29T03:43:05;99221.25;;;8.38;66.84
80188;BME280;73735;52.134;5.436;2024-03-29T03:45:37;99227.03;;;8.42;66.87
80188;BME280;73735;52.134;5.436;2024-03-29T03:48:04;99215.84;;;8.40;66.67
80188;BME280;73735;52.134;5.436;2024-03-29T03:50:30;99226.06;;;8.43;66.90
80188;BME280;73735;52.134;5.436;2024-03-29T03:52:56;99231.97;;;8.45;67.08
80188;BME280;73735;52.134;5.436;2024-03-29T03:55:22;99225.44;;;8.49;66.85
80188;BME280;73735;52.134;5.436;2024-03-29T03:57:47;99228.75;;;8.51;66.78
80188;BME280;73735;52.134;5.436;2024-03-29T04:00:13;99235.66;;;8.52;66.73
80188;BME280;73735;52.134;5.436;2024-03-29T04:02:39;99240.63;;;8.55;66.68
80188;BME280;73735;52.134;5.436;2024-03-29T04:05:04;99224.75;;;8.57;66.75
80188;BME280;73735;52.134;5.436;2024-03-29T04:07:30;99231.63;;;8.58;67.04
80188;BME280;73735;52.134;5.436;2024-03-29T04:09:55;99235.09;;;8.58;66.95
80188;BME280;73735;52.134;5.436;2024-03-29T04:12:21;99241.97;;;8.59;67.19
80188;BME280;73735;52.134;5.436;2024-03-29T04:14:46;99238.22;;;8.62;67.18
80188;BME280;73735;52.134;5.436;2024-03-29T04:17:12;99243.31;;;8.63;67.13
80188;BME280;73735;52.134;5.436;2024-03-29T04:19:38;99246.63;;;8.65;67.06
80188;BME280;73735;52.134;5.436;2024-03-29T04:22:03;99239.44;;;8.67;66.93
80188;BME280;73735;52.134;5.436;2024-03-29T04:24:29;99241.09;;;8.68;66.87
80188;BME280;73735;52.134;5.436;2024-03-29T04:26:54;99232.09;;;8.71;66.97
80188;BME280;73735;52.134;5.436;2024-03-29T04:29:20;99235.56;;;8.71;67.29
80188;BME280;73735;52.134;5.436;2024-03-29T04:31:45;99222.44;;;8.71;67.34
80188;BME280;73735;52.134;5.436;2024-03-29T04:34:11;99230.03;;;8.74;67.05
80188;BME280;73735;52.134;5.436;2024-03-29T04:36:37;99235.91;;;8.76;67.00
80188;BME280;73735;52.134;5.436;2024-03-29T04:39:02;99229.69;;;8.77;67.20
80188;BME280;73735;52.134;5.436;2024-03-29T04:41:28;99231.34;;;8.78;67.52
80188;BME280;73735;52.134;5.436;2024-03-29T04:43:53;99229.56;;;8.79;67.42
80188;BME280;73735;52.134;5.436;2024-03-29T04:46:21;99235.47;;;8.81;67.29
80188;BME280;73735;52.134;5.436;2024-03-29T04:48:47;99232.72;;;8.82;67.56
80188;BME280;73735;52.134;5.436;2024-03-29T04:51:12;99213.38;;;8.83;68.05
80188;BME280;73735;52.134;5.436;2024-03-29T04:53:39;99227.47;;;8.82;68.36
80188;BME280;73735;52.134;5.436;2024-03-29T04:56:05;99236.31;;;8.81;69.06
80188;BME280;73735;52.134;5.436;2024-03-29T04:58:31;99219.88;;;8.79;69.95
80188;BME280;73735;52.134;5.436;2024-03-29T05:00:57;99228.50;;;8.72;70.82
80188;BME280;73735;52.134;5.436;2024-03-29T05:03:23;99230.88;;;8.65;71.75
80188;BME280;73735;52.134;5.436;2024-03-29T05:05:52;99232.31;;;8.60;71.96
80188;BME280;73735;52.134;5.436;2024-03-29T05:08:18;99217.16;;;8.54;72.79
80188;BME280;73735;52.134;5.436;2024-03-29T05:10:45;99242.16;;;8.48;73.82
80188;BME280;73735;52.134;5.436;2024-03-29T05:13:11;99243.59;;;8.42;74.69
80188;BME280;73735;52.134;5.436;2024-03-29T05:15:37;99239.59;;;8.38;75.24
80188;BME280;73735;52.134;5.436;2024-03-29T05:18:03;99247.06;;;8.33;75.67
80188;BME280;73735;52.134;5.436;2024-03-29T05:20:30;99247.47;;;8.29;75.91
80188;BME280;73735;52.134;5.436;2024-03-29T05:22:55;99248.44;;;8.28;76.58
80188;BME280;73735;52.134;5.436;2024-03-29T05:25:21;99247.06;;;8.24;76.96
80188;BME280;73735;52.134;5.436;2024-03-29T05:27:46;99241.16;;;8.22;77.05
80188;BME280;73735;52.134;5.436;2024-03-29T05:30:12;99249.00;;;8.22;77.24
80188;BME280;73735;52.134;5.436;2024-03-29T05:32:39;99263.91;;;8.21;77.43
80188;BME280;73735;52.134;5.436;2024-03-29T05:35:05;99269.28;;;8.20;77.81
80188;BME280;73735;52.134;5.436;2024-03-29T05:37:30;99278.13;;;8.19;77.99
80188;BME280;73735;52.134;5.436;2024-03-29T05:39:56;99284.34;;;8.18;77.83
80188;BME280;73735;52.134;5.436;2024-03-29T05:42:30;99290.41;;;8.18;78.44
80188;BME280;73735;52.134;5.436;2024-03-29T05:44:56;99294.00;;;8.17;78.36
80188;BME280;73735;52.134;5.436;2024-03-29T05:47:22;99296.78;;;8.16;78.72
80188;BME280;73735;52.134;5.436;2024-03-29T05:49:48;99292.38;;;8.16;78.67
80188;BME280;73735;52.134;5.436;2024-03-29T05:52:14;99286.31;;;8.16;79.16
80188;BME280;73735;52.134;5.436;2024-03-29T05:54:40;99305.63;;;8.14;79.52
80188;BME280;73735;52.134;5.436;2024-03-29T05:57:06;99315.41;;;8.12;79.60
80188;BME280;73735;52.134;5.436;2024-03-29T05:59:35;99318.72;;;8.14;79.90
80188;BME280;73735;52.134;5.436;2024-03-29T06:02:00;99312.78;;;8.12;79.99
80188;BME280;73735;52.134;5.436;2024-03-29T06:04:26;99315.78;;;8.27;79.88
80188;BME280;73735;52.134;5.436;2024-03-29T06:07:01;99315.22;;;8.33;80.08
80188;BME280;73735;52.134;5.436;2024-03-29T06:09:27;99324.47;;;8.28;79.89
80188;BME280;73735;52.134;5.436;2024-03-29T06:11:54;99339.66;;;8.24;80.00
80188;BME280;73735;52.134;5.436;2024-03-29T06:14:19;99332.75;;;8.23;80.48
80188;BME280;73735;52.134;5.436;2024-03-29T06:17:04;99336.63;;;8.19;80.31
80188;BME280;73735;52.134;5.436;2024-03-29T06:19:54;99330.19;;;8.13;80.39
80188;BME280;73735;52.134;5.436;2024-03-29T06:22:26;99344.94;;;8.14;80.93
80188;BME280;73735;52.134;5.436;2024-03-29T06:24:55;99340.34;;;8.17;81.20
80188;BME280;73735;52.134;5.436;2024-03-29T06:27:27;99339.56;;;8.16;81.07
80188;BME280;73735;52.134;5.436;2024-03-29T06:29:52;99344.09;;;8.14;81.29
80188;BME280;73735;52.134;5.436;2024-03-29T06:32:18;99336.09;;;8.16;81.06
80188;BME280;73735;52.134;5.436;2024-03-29T06:34:44;99349.22;;;8.16;81.32
80188;BME280;73735;52.134;5.436;2024-03-29T06:37:10;99350.28;;;8.23;81.81
80188;BME280;73735;52.134;5.436;2024-03-29T06:39:36;99343.38;;;8.22;81.73
80188;BME280;73735;52.134;5.436;2024-03-29T06:42:02;99342.97;;;8.26;81.59
80188;BME280;73735;52.134;5.436;2024-03-29T06:44:27;99347.66;;;8.32;81.79
80188;BME280;73735;52.134;5.436;2024-03-29T06:46:53;99334.69;;;8.31;81.80
80188;BME280;73735;52.134;5.436;2024-03-29T06:49:19;99339.09;;;8.40;81.69
80188;BME280;73735;52.134;5.436;2024-03-29T06:51:44;99340.63;;;8.42;82.07
80188;BME280;73735;52.134;5.436;2024-03-29T06:54:10;99340.06;;;8.39;81.36
80188;BME280;73735;52.134;5.436;2024-03-29T06:56:35;99325.44;;;8.36;81.62
80188;BME280;73735;52.134;5.436;2024-03-29T06:59:01;99335.09;;;8.36;82.00
80188;BME280;73735;52.134;5.436;2024-03-29T07:01:27;99329.03;;;8.35;81.95
80188;BME280;73735;52.134;5.436;2024-03-29T07:03:52;99323.66;;;8.37;81.94
80188;BME280;73735;52.134;5.436;2024-03-29T07:06:18;99327.38;;;8.34;82.02
80188;BME280;73735;52.134;5.436;2024-03-29T07:08:43;99322.69;;;8.38;81.91
80188;BME280;73735;52.134;5.436;2024-03-29T07:11:09;99323.38;;;8.40;81.96
80188;BME280;73735;52.134;5.436;2024-03-29T07:13:35;99327.63;;;8.41;82.18
80188;BME280;73735;52.134;5.436;2024-03-29T07:16:01;99327.63;;;8.41;82.06
80188;BME280;73735;52.134;5.436;2024-03-29T07:18:27;99331.63;;;8.45;81.73
80188;BME280;73735;52.134;5.436;2024-03-29T07:20:53;99342.41;;;8.42;81.88
80188;BME280;73735;52.134;5.436;2024-03-29T07:23:18;99337.44;;;8.39;82.00
80188;BME280;73735;52.134;5.436;2024-03-29T07:25:45;99342.97;;;8.36;81.89
80188;BME280;73735;52.134;5.436;2024-03-29T07:28:11;99340.06;;;8.39;82.14
80188;BME280;73735;52.134;5.436;2024-03-29T07:30:41;99346.13;;;8.39;82.02
80188;BME280;73735;52.134;5.436;2024-03-29T07:33:06;99362.41;;;8.43;81.81
80188;BME280;73735;52.134;5.436;2024-03-29T07:35:34;99364.06;;;8.44;81.95
80188;BME280;73735;52.134;5.436;2024-03-29T07:37:59;99363.09;;;8.45;81.98
80188;BME280;73735;52.134;5.436;2024-03-29T07:40:25;99370.28;;;8.43;82.02
80188;BME280;73735;52.134;5.436;2024-03-29T07:42:50;99368.78;;;8.40;82.16
80188;BME280;73735;52.134;5.436;2024-03-29T07:45:16;99364.34;;;8.41;82.14
80188;BME280;73735;52.134;5.436;2024-03-29T07:47:41;99362.09;;;8.46;82.59
80188;BME280;73735;52.134;5.436;2024-03-29T07:50:07;99363.22;;;8.53;82.24
80188;BME280;73735;52.134;5.436;2024-03-29T07:52:35;99360.72;;;8.52;82.29
80188;BME280;73735;52.134;5.436;2024-03-29T07:55:00;99363.38;;;8.42;82.29
80188;BME280;73735;52.134;5.436;2024-03-29T07:57:26;99367.66;;;8.43;82.46
80188;BME280;73735;52.134;5.436;2024-03-29T07:59:51;99367.53;;;8.44;82.30
80188;BME280;73735;52.134;5.436;2024-03-29T08:02:17;99372.47;;;8.47;82.50
80188;BME280;73735;52.134;5.436;2024-03-29T08:04:42;99363.47;;;8.50;82.25
80188;BME280;73735;52.134;5.436;2024-03-29T08:07:10;99357.41;;;8.49;82.32
80188;BME280;73735;52.134;5.436;2024-03-29T08:09:38;99355.06;;;8.56;82.21
80188;BME280;73735;52.134;5.436;2024-03-29T08:12:05;99352.53;;;8.64;82.21
80188;BME280;73735;52.134;5.436;2024-03-29T08:14:31;99342.59;;;8.68;81.92
80188;BME280;73735;52.134;5.436;2024-03-29T08:16:56;99346.28;;;8.75;81.95
80188;BME280;73735;52.134;5.436;2024-03-29T08:19:27;99354.09;;;8.84;81.89
80188;BME280;73735;52.134;5.436;2024-03-29T08:21:53;99362.75;;;8.95;82.11
80188;BME280;73735;52.134;5.436;2024-03-29T08:24:18;99370.13;;;9.09;81.89
80188;BME280;73735;52.134;5.436;2024-03-29T08:26:44;99375.50;;;9.17;81.24
80188;BME280;73735;52.134;5.436;2024-03-29T08:29:09;99368.75;;;9.14;80.98
80188;BME280;73735;52.134;5.436;2024-03-29T08:31:35;99368.59;;;9.16;80.92
80188;BME280;73735;52.134;5.436;2024-03-29T08:34:00;99352.78;;;9.26;80.98
80188;BME280;73735;52.134;5.436;2024-03-29T08:36:27;99336.88;;;9.45;80.97
80188;BME280;73735;52.134;5.436;2024-03-29T08:38:52;99357.53;;;9.58;80.35
80188;BME280;73735;52.134;5.436;2024-03-29T08:41:17;99364.66;;;9.83;80.16
80188;BME280;73735;52.134;5.436;2024-03-29T08:43:43;99373.66;;;9.98;79.56
80188;BME280;73735;52.134;5.436;2024-03-29T08:46:09;99371.53;;;10.02;79.35
80188;BME280;73735;52.134;5.436;2024-03-29T08:48:34;99378.91;;;9.98;79.08
80188;BME280;73735;52.134;5.436;2024-03-29T08:51:01;99379.19;;;9.95;79.14
80188;BME280;73735;52.134;5.436;2024-03-29T08:53:27;99372.31;;;9.94;78.94
80188;BME280;73735;52.134;5.436;2024-03-29T08:55:52;99381.53;;;9.98;78.63
80188;BME280;73735;52.134;5.436;2024-03-29T08:58:18;99374.31;;;10.00;78.06
80188;BME280;73735;52.134;5.436;2024-03-29T09:00:53;99394.75;;;10.06;78.00
80188;BME280;73735;52.134;5.436;2024-03-29T09:03:20;99376.28;;;9.98;77.36
80188;BME280;73735;52.134;5.436;2024-03-29T09:05:46;99385.06;;;10.07;77.30
80188;BME280;73735;52.134;5.436;2024-03-29T09:08:11;99384.00;;;10.17;77.46
80188;BME280;73735;52.134;5.436;2024-03-29T09:10:36;99373.16;;;10.38;76.75
80188;BME280;73735;52.134;5.436;2024-03-29T09:13:02;99386.72;;;10.51;76.26
80188;BME280;73735;52.134;5.436;2024-03-29T09:15:28;99381.19;;;10.63;76.33
80188;BME280;73735;52.134;5.436;2024-03-29T09:17:53;99378.44;;;10.72;75.68
80188;BME280;73735;52.134;5.436;2024-03-29T09:20:20;99381.28;;;10.79;75.19
80188;BME280;73735;52.134;5.436;2024-03-29T09:22:46;99371.44;;;10.89;75.62
80188;BME280;73735;52.134;5.436;2024-03-29T09:25:11;99384.81;;;10.95;74.78
80188;BME280;73735;52.134;5.436;2024-03-29T09:27:40;99383.19;;;11.03;74.52
80188;BME280;73735;52.134;5.436;2024-03-29T09:30:10;99395.69;;;11.01;72.98
80188;BME280;73735;52.134;5.436;2024-03-29T09:32:36;99399.28;;;10.91;73.04
80188;BME280;73735;52.134;5.436;2024-03-29T09:35:01;99400.28;;;10.99;72.40
80188;BME280;73735;52.134;5.436;2024-03-29T09:37:27;99418.41;;;11.02;72.55
80188;BME280;73735;52.134;5.436;2024-03-29T09:39:52;99411.19;;;11.04;71.90
80188;BME280;73735;52.134;5.436;2024-03-29T09:42:21;99416.81;;;11.09;71.60
80188;BME280;73735;52.134;5.436;2024-03-29T09:44:50;99417.47;;;11.11;71.41
80188;BME280;73735;52.134;5.436;2024-03-29T09:47:17;99413.03;;;11.11;71.51
80188;BME280;73735;52.134;5.436;2024-03-29T09:49:44;99418.63;;;11.08;71.33
80188;BME280;73735;52.134;5.436;2024-03-29T09:52:11;99414.69;;;11.12;71.12
80188;BME280;73735;52.134;5.436;2024-03-29T09:54:37;99413.50;;;11.07;71.28
80188;BME280;73735;52.134;5.436;2024-03-29T09:57:04;99426.00;;;11.05;71.15
80188;BME280;73735;52.134;5.436;2024-03-29T09:59:30;99426.81;;;10.97;71.00
80188;BME280;73735;52.134;5.436;2024-03-29T10:01:55;99433.88;;;10.97;71.32
80188;BME280;73735;52.134;5.436;2024-03-29T10:04:23;99440.47;;;11.01;71.54
80188;BME280;73735;52.134;5.436;2024-03-29T10:06:51;99426.00;;;11.05;71.22
80188;BME280;73735;52.134;5.436;2024-03-29T10:09:21;99426.69;;;11.07;71.50
80188;BME280;73735;52.134;5.436;2024-03-29T10:11:47;99423.56;;;11.11;71.09
80188;BME280;73735;52.134;5.436;2024-03-29T10:14:16;99418.16;;;11.13;71.22
80188;BME280;73735;52.134;5.436;2024-03-29T10:16:42;99419.97;;;11.20;70.95
80188;BME280;73735;52.134;5.436;2024-03-29T10:19:07;99405.00;;;11.29;71.26
80188;BME280;73735;52.134;5.436;2024-03-29T10:21:34;99406.06;;;11.44;70.96
80188;BME280;73735;52.134;5.436;2024-03-29T10:24:14;99421.91;;;11.52;70.88
80188;BME280;73735;52.134;5.436;2024-03-29T10:26:41;99416.31;;;11.55;70.87
80188;BME280;73735;52.134;5.436;2024-03-29T10:29:07;99420.75;;;11.63;70.63
80188;BME280;73735;52.134;5.436;2024-03-29T10:31:36;99422.72;;;11.61;69.78
80188;BME280;73735;52.134;5.436;2024-03-29T10:34:03;99417.53;;;11.77;69.74
80188;BME280;73735;52.134;5.436;2024-03-29T10:36:30;99419.84;;;11.88;69.37
80188;BME280;73735;52.134;5.436;2024-03-29T10:39:02;99415.25;;;11.98;69.37
80188;BME280;73735;52.134;5.436;2024-03-29T10:41:34;99407.19;;;12.16;68.95
80188;BME280;73735;52.134;5.436;2024-03-29T10:44:00;99422.03;;;12.25;68.73
80188;BME280;73735;52.134;5.436;2024-03-29T10:46:30;99434.56;;;12.15;68.81
80188;BME280;73735;52.134;5.436;2024-03-29T10:48:57;99435.53;;;12.14;68.21
80188;BME280;73735;52.134;5.436;2024-03-29T10:51:23;99412.28;;;12.18;68.50
80188;BME280;73735;52.134;5.436;2024-03-29T10:53:48;99412.63;;;12.31;68.21
80188;BME280;73735;52.134;5.436;2024-03-29T10:56:15;99415.75;;;12.43;67.47
80188;BME280;73735;52.134;5.436;2024-03-29T10:58:44;99427.28;;;12.42;67.04
80188;BME280;73735;52.134;5.436;2024-03-29T11:01:15;99430.59;;;12.44;66.90
80188;BME280;73735;52.134;5.436;2024-03-29T11:03:50;99439.81;;;12.56;66.75
80188;BME280;73735;52.134;5.436;2024-03-29T11:06:22;99444.09;;;12.57;66.46
80188;BME280;73735;52.134;5.436;2024-03-29T11:08:52;99443.78;;;12.52;66.25
80188;BME280;73735;52.134;5.436;2024-03-29T11:11:19;99444.09;;;12.49;66.41
80188;BME280;73735;52.134;5.436;2024-03-29T11:13:54;99450.69;;;12.53;66.64
80188;BME280;73735;52.134;5.436;2024-03-29T11:16:23;99465.88;;;12.67;66.88
80188;BME280;73735;52.134;5.436;2024-03-29T11:18:49;99463.69;;;12.87;65.90
80188;BME280;73735;52.134;5.436;2024-03-29T11:21:16;99457.38;;;12.96;66.25
80188;BME280;73735;52.134;5.436;2024-03-29T11:23:49;99444.97;;;13.13;65.78
80188;BME280;73735;52.134;5.436;2024-03-29T11:26:16;99440.31;;;13.31;65.27
80188;BME280;73735;52.134;5.436;2024-03-29T11:28:48;99436.13;;;13.45;65.29
80188;BME280;73735;52.134;5.436;2024-03-29T11:31:15;99430.00;;;13.44;65.13
80188;BME280;73735;52.134;5.436;2024-03-29T11:38:51;99429.47;;;13.18;63.74
80188;BME280;73735;52.134;5.436;2024-03-29T11:41:22;99436.41;;;13.19;64.43
80188;BME280;73735;52.134;5.436;2024-03-29T11:43:49;99435.50;;;13.34;64.28
80188;BME280;73735;52.134;5.436;2024-03-29T11:46:16;99436.19;;;13.28;64.43
80188;BME280;73735;52.134;5.436;2024-03-29T11:48:42;99434.03;;;13.24;64.03
80188;BME280;73735;52.134;5.436;2024-03-29T11:51:12;99440.03;;;13.18;63.34
80188;BME280;73735;52.134;5.436;2024-03-29T11:53:40;99438.69;;;13.14;63.45
80188;BME280;73735;52.134;5.436;2024-03-29T11:56:06;99446.78;;;13.12;63.51
80188;BME280;73735;52.134;5.436;2024-03-29T11:58:33;99436.22;;;13.12;63.50
80188;BME280;73735;52.134;5.436;2024-03-29T12:00:59;99441.69;;;13.19;63.35
80188;BME280;73735;52.134;5.436;2024-03-29T12:03:28;99444.63;;;13.24;63.25
80188;BME280;73735;52.134;5.436;2024-03-29T12:05:56;99455.81;;;13.34;62.97
80188;BME280;73735;52.134;5.436;2024-03-29T12:08:29;99453.81;;;13.36;63.04
80188;BME280;73735;52.134;5.436;2024-03-29T12:10:55;99461.13;;;13.34;63.41
80188;BME280;73735;52.134;5.436;2024-03-29T12:13:21;99464.75;;;13.33;63.43
80188;BME280;73735;52.134;5.436;2024-03-29T12:15:46;99475.50;;;13.31;62.89
80188;BME280;73735;52.134;5.436;2024-03-29T12:18:12;99477.00;;;13.26;63.21
80188;BME280;73735;52.134;5.436;2024-03-29T12:20:38;99489.22;;;13.27;63.37
80188;BME280;73735;52.134;5.436;2024-03-29T12:23:08;99478.31;;;13.30;63.30
80188;BME280;73735;52.134;5.436;2024-03-29T12:25:38;99480.06;;;13.37;63.25
80188;BME280;73735;52.134;5.436;2024-03-29T12:28:05;99482.88;;;13.36;63.03
80188;BME280;73735;52.134;5.436;2024-03-29T12:30:31;99463.03;;;13.48;62.54
80188;BME280;73735;52.134;5.436;2024-03-29T12:33:00;99476.53;;;13.61;62.21
80188;BME280;73735;52.134;5.436;2024-03-29T12:35:27;99483.09;;;13.65;62.07
80188;BME280;73735;52.134;5.436;2024-03-29T12:37:53;99485.75;;;13.65;61.91
80188;BME280;73735;52.134;5.436;2024-03-29T12:40:19;99489.00;;;13.75;62.10
80188;BME280;73735;52.134;5.436;2024-03-29T12:42:51;99493.31;;;13.76;60.92
80188;BME280;73735;52.134;5.436;2024-03-29T12:45:20;99489.66;;;13.77;60.99
80188;BME280;73735;52.134;5.436;2024-03-29T12:47:47;99491.00;;;13.73;61.44
80188;BME280;73735;52.134;5.436;2024-03-29T12:50:40;99492.31;;;13.77;61.75
80188;BME280;73735;52.134;5.436;2024-03-29T12:53:09;99489.50;;;13.79;61.77
80188;BME280;73735;52.134;5.436;2024-03-29T12:55:35;99486.97;;;13.86;60.65
80188;BME280;73735;52.134;5.436;2024-03-29T12:58:05;99489.09;;;13.90;60.63
80188;BME280;73735;52.134;5.436;2024-03-29T13:00:34;99498.50;;;13.93;61.16
80188;BME280;73735;52.134;5.436;2024-03-29T13:03:00;99494.88;;;13.94;60.74
80188;BME280;73735;52.134;5.436;2024-03-29T13:05:26;99484.31;;;13.86;60.41
80188;BME280;73735;52.134;5.436;2024-03-29T13:07:53;99490.59;;;13.85;60.67
80188;BME280;73735;52.134;5.436;2024-03-29T13:10:18;99489.94;;;13.83;60.45